Time;durP1;ratioP1;P1;durP2;ratioP2;P2;SDS_P1;SDS_P2;PMS_P1;PMS_P2;Temp;Humidity;BMP_temperature;BMP_pressure;BME280_temperature;BME280_humidity;BME280_pressure;Samples;Min_cycle;Max_cycle;Signal;HPM_P1;HPM_P2
2023/03/10 00:00:13;;;;;;;33.88;16.77;;;;;;;8.24;66.58;98258.25;685443;28;1547;-85
2023/03/10 00:00:34;;;;;;;34.28;16.90;;;;;;;8.29;66.17;98260.84;685536;28;1268;-85
2023/03/10 00:00:54;;;;;;;32.90;16.43;;;;;;;8.30;66.31;98258.22;690779;28;1191;-85
2023/03/10 00:01:18;;;;;;;36.55;16.95;;;;;;;8.32;66.45;98266.00;691017;28;1134;-85
2023/03/10 00:01:39;;;;;;;38.90;17.25;;;;;;;8.28;66.34;98259.09;688173;28;1008;-85
2023/03/10 00:02:00;;;;;;;41.50;17.65;;;;;;;8.35;66.13;98260.78;682892;28;1176;-85
2023/03/10 00:02:21;;;;;;;40.53;17.75;;;;;;;8.32;66.38;98258.22;690846;28;1354;-85
2023/03/10 00:02:48;;;;;;;43.05;18.15;;;;;;;8.29;66.17;98261.69;688218;28;1314;-85
2023/03/10 00:03:08;;;;;;;42.25;18.45;;;;;;;8.30;66.30;98258.22;682245;29;1155;-85
2023/03/10 00:03:29;;;;;;;42.35;18.55;;;;;;;8.31;66.48;98259.09;685632;28;1171;-85
2023/03/10 00:03:50;;;;;;;37.15;17.70;;;;;;;8.30;66.51;98262.56;690796;28;1262;-85
2023/03/10 00:04:11;;;;;;;37.80;17.40;;;;;;;8.33;66.43;98257.34;688265;28;1003;-85
2023/03/10 00:04:32;;;;;;;38.00;17.73;;;;;;;8.33;66.31;98257.34;691060;28;788;-85
2023/03/10 00:04:52;;;;;;;39.15;17.85;;;;;;;8.36;66.31;98258.19;688036;28;1263;-85
2023/03/10 00:05:15;;;;;;;39.70;18.15;;;;;;;8.30;66.42;98249.56;682810;28;1212;-85
2023/03/10 00:05:37;;;;;;;39.40;17.90;;;;;;;8.30;66.51;98246.97;685587;28;1326;-85
2023/03/10 00:05:58;;;;;;;42.92;17.70;;;;;;;8.39;66.51;98256.44;688088;28;1344;-85
2023/03/10 00:06:21;;;;;;;42.20;17.40;;;;;;;8.37;66.43;98248.69;680177;28;1209;-85
2023/03/10 00:06:42;;;;;;;41.35;17.75;;;;;;;8.36;66.36;98250.41;680016;29;1379;-85
2023/03/10 00:07:02;;;;;;;40.00;17.92;;;;;;;8.37;66.27;98238.28;682700;28;1067;-85
2023/03/10 00:07:23;;;;;;;39.88;18.40;;;;;;;8.36;66.13;98240.00;685603;28;1208;-85
2023/03/10 00:07:44;;;;;;;41.70;18.53;;;;;;;8.38;66.37;98245.22;682823;28;1273;-85
2023/03/10 00:08:05;;;;;;;41.50;18.42;;;;;;;8.43;65.96;98243.47;685457;28;1261;-85
2023/03/10 00:08:25;;;;;;;40.05;17.15;;;;;;;8.45;66.23;98251.22;688353;28;820;-85
2023/03/10 00:08:46;;;;;;;37.40;16.50;;;;;;;8.38;66.05;98234.81;682912;28;1123;-85
2023/03/10 00:09:08;;;;;;;40.28;16.55;;;;;;;8.41;66.21;98242.59;687310;28;1292;-85
2023/03/10 00:09:28;;;;;;;39.83;16.83;;;;;;;8.41;66.16;98237.38;682915;28;1237;-85
2023/03/10 00:09:49;;;;;;;43.23;18.07;;;;;;;8.47;66.11;98239.97;680124;29;1156;-85
2023/03/10 00:10:11;;;;;;;43.88;18.40;;;;;;;8.41;65.85;98234.78;690875;28;1181;-85
2023/03/10 00:10:32;;;;;;;45.17;18.63;;;;;;;8.42;66.17;98231.31;690885;28;1553;-85
2023/03/10 00:10:53;;;;;;;43.03;17.77;;;;;;;8.49;65.95;98243.41;687808;28;1171;-85
2023/03/10 00:11:14;;;;;;;39.85;17.35;;;;;;;8.50;66.23;98242.53;685470;28;1118;-84
2023/03/10 00:11:34;;;;;;;37.28;17.33;;;;;;;8.45;66.05;98226.13;688053;28;1339;-85
2023/03/10 00:11:55;;;;;;;38.75;16.70;;;;;;;8.49;66.37;98237.38;693354;28;1910;-86
2023/03/10 00:12:15;;;;;;;38.80;17.17;;;;;;;8.39;66.29;98240.84;690809;28;1185;-85
2023/03/10 00:12:36;;;;;;;40.33;17.02;;;;;;;8.33;66.39;98229.63;685482;28;1294;-85
2023/03/10 00:12:57;;;;;;;38.72;17.35;;;;;;;8.42;66.68;98231.31;682821;29;1137;-85
2023/03/10 00:13:17;;;;;;;40.07;16.90;;;;;;;8.48;66.33;98225.25;685509;28;1198;-85
2023/03/10 00:13:38;;;;;;;36.35;17.08;;;;;;;8.50;65.95;98224.34;685657;28;1021;-85
2023/03/10 00:13:59;;;;;;;39.67;18.13;;;;;;;8.53;65.97;98227.81;682886;29;989;-85
2023/03/10 00:14:19;;;;;;;37.73;18.30;;;;;;;8.38;66.19;98223.53;688300;28;1204;-85
2023/03/10 00:14:40;;;;;;;38.70;17.65;;;;;;;8.46;66.27;98217.44;688127;28;1189;-85
2023/03/10 00:15:00;;;;;;;35.65;16.83;;;;;;;8.54;66.43;98224.34;685480;28;1230;-85
2023/03/10 00:15:22;;;;;;;38.67;16.70;;;;;;;8.48;66.11;98215.69;685458;28;1369;-85
2023/03/10 00:15:42;;;;;;;37.53;17.02;;;;;;;8.49;66.35;98222.63;690870;28;1412;-85
2023/03/10 00:16:04;;;;;;;40.53;17.63;;;;;;;8.54;66.45;98225.19;688104;28;1252;-85
2023/03/10 00:16:27;;;;;;;39.05;17.35;;;;;;;8.39;66.23;98214.88;688352;28;812;-85
2023/03/10 00:16:48;;;;;;;40.88;17.88;;;;;;;8.52;66.41;98210.50;685254;28;972;-85
2023/03/10 00:17:09;;;;;;;45.37;18.00;;;;;;;8.47;66.23;98200.09;685459;28;1164;-85
2023/03/10 00:17:30;;;;;;;44.25;18.40;;;;;;;8.60;66.19;98219.13;688242;28;803;-85
2023/03/10 00:17:54;;;;;;;42.28;17.45;;;;;;;8.58;66.27;98210.44;685556;28;1281;-85
2023/03/10 00:18:14;;;;;;;37.08;17.20;;;;;;;8.46;66.30;98212.25;682732;28;1051;-85
2023/03/10 00:18:35;;;;;;;38.20;17.27;;;;;;;8.43;66.40;98207.06;685592;28;1229;-85
2023/03/10 00:18:56;;;;;;;39.35;17.83;;;;;;;8.53;66.29;98201.84;688067;28;1075;-85
2023/03/10 00:19:17;;;;;;;44.20;17.90;;;;;;;8.53;66.17;98199.22;682739;29;1178;-85
2023/03/10 00:19:37;;;;;;;44.40;18.00;;;;;;;8.57;66.30;98198.34;688219;28;1135;-85
2023/03/10 00:19:58;;;;;;;42.60;17.60;;;;;;;8.50;66.31;98197.50;682864;29;1006;-85
2023/03/10 00:20:19;;;;;;;38.63;17.25;;;;;;;8.57;66.44;98203.53;688108;28;1202;-85
2023/03/10 00:20:39;;;;;;;42.97;17.90;;;;;;;8.56;66.81;98202.69;685461;28;1315;-85
2023/03/10 00:21:00;;;;;;;41.70;17.93;;;;;;;8.59;66.37;98201.78;680188;28;1301;-85
2023/03/10 00:21:24;;;;;;;40.67;17.85;;;;;;;8.61;66.51;98189.66;685521;28;1112;-85
2023/03/10 00:21:46;;;;;;;37.00;17.50;;;;;;;8.61;66.45;98194.84;688254;28;1169;-85
2023/03/10 00:22:06;;;;;;;39.63;17.30;;;;;;;8.68;66.14;98196.59;688209;28;1042;-85
2023/03/10 00:22:27;;;;;;;38.08;16.83;;;;;;;8.68;66.19;98196.59;682878;29;788;-85
2023/03/10 00:22:47;;;;;;;39.50;16.67;;;;;;;8.68;66.03;98191.38;685564;28;1005;-85
2023/03/10 00:23:08;;;;;;;38.70;17.20;;;;;;;8.66;66.20;98193.09;688159;28;1156;-85
2023/03/10 00:23:29;;;;;;;36.45;16.88;;;;;;;8.69;66.44;98197.44;682893;28;1142;-85
2023/03/10 00:23:51;;;;;;;36.20;17.10;;;;;;;8.63;66.28;98200.94;682730;28;1357;-85
2023/03/10 00:24:11;;;;;;;35.20;16.27;;;;;;;8.66;66.03;98193.09;682865;29;980;-86
2023/03/10 00:24:37;;;;;;;38.20;16.50;;;;;;;8.69;66.08;98187.91;685559;28;1205;-85
2023/03/10 00:24:58;;;;;;;37.53;16.20;;;;;;;8.70;66.25;98188.75;686860;28;1031;-85
2023/03/10 00:25:18;;;;;;;40.05;16.83;;;;;;;8.74;66.29;98191.31;688191;28;1449;-86
2023/03/10 00:25:39;;;;;;;38.90;16.53;;;;;;;8.70;66.12;98183.56;685519;28;833;-85
2023/03/10 00:25:59;;;;;;;37.00;16.25;;;;;;;8.71;66.15;98180.06;682760;29;1001;-85
2023/03/10 00:26:21;;;;;;;38.25;16.33;;;;;;;8.69;66.26;98174.91;685478;28;1156;-86
2023/03/10 00:26:42;;;;;;;38.60;17.08;;;;;;;8.79;66.08;98195.66;693454;28;908;-85
2023/03/10 00:27:02;;;;;;;42.47;17.08;;;;;;;8.76;66.43;98184.41;690793;28;1082;-85
2023/03/10 00:27:23;;;;;;;39.00;16.45;;;;;;;8.72;66.29;98176.63;688108;28;1310;-85
2023/03/10 00:27:43;;;;;;;37.10;15.67;;;;;;;8.76;66.12;98183.53;682884;28;973;-85
2023/03/10 00:28:04;;;;;;;31.17;15.45;;;;;;;8.81;65.87;98192.16;690709;28;1204;-85
2023/03/10 00:28:26;;;;;;;32.78;15.98;;;;;;;8.83;66.22;98182.63;688319;28;1067;-85
2023/03/10 00:28:47;;;;;;;37.13;16.23;;;;;;;8.81;66.24;98188.69;688089;28;1370;-85
2023/03/10 00:29:10;;;;;;;39.35;16.00;;;;;;;8.73;66.24;98189.59;682868;28;1209;-85
2023/03/10 00:29:31;;;;;;;40.85;16.45;;;;;;;8.72;66.78;98187.03;685599;28;909;-85
2023/03/10 00:29:51;;;;;;;38.72;17.40;;;;;;;8.72;66.36;98172.28;687976;28;1362;-85
2023/03/10 00:30:12;;;;;;;37.67;17.27;;;;;;;8.77;66.47;98174.84;688227;28;1020;-85
2023/03/10 00:30:34;;;;;;;36.88;16.40;;;;;;;8.77;66.46;98170.53;688289;28;760;-85
2023/03/10 00:31:00;;;;;;;36.60;16.05;;;;;;;8.88;66.22;98185.19;685316;28;1076;-85
2023/03/10 00:31:23;;;;;;;35.13;16.40;;;;;;;8.89;66.18;98184.31;682979;28;1096;-85
2023/03/10 00:31:44;;;;;;;36.58;16.63;;;;;;;8.80;66.38;98174.84;688132;28;1268;-85
2023/03/10 00:32:22;;;;;;;36.95;16.85;;;;;;;8.95;66.26;98179.06;687858;28;1919;-85
2023/03/10 00:32:43;;;;;;;33.10;16.30;;;;;;;8.85;66.23;98160.06;680004;29;1513;-85
2023/03/10 00:33:04;;;;;;;31.85;15.90;;;;;;;8.89;66.24;98169.56;682794;28;1160;-85
2023/03/10 00:33:24;;;;;;;32.67;16.13;;;;;;;8.96;66.30;98169.53;682877;28;875;-85
2023/03/10 00:33:45;;;;;;;33.42;16.42;;;;;;;8.89;66.26;98166.09;682826;29;1192;-86
2023/03/10 00:34:06;;;;;;;37.28;16.48;;;;;;;8.94;66.18;98171.25;685502;28;1144;-85
2023/03/10 00:34:27;;;;;;;35.90;15.65;;;;;;;8.86;66.21;98163.53;680188;28;1321;-85
2023/03/10 00:34:47;;;;;;;34.80;15.37;;;;;;;8.85;66.15;98162.66;682804;29;1017;-85
2023/03/10 00:35:08;;;;;;;33.80;15.57;;;;;;;8.87;66.39;98167.84;682824;28;1223;-85
2023/03/10 00:35:29;;;;;;;36.80;16.02;;;;;;;8.88;66.34;98161.78;685586;28;1263;-85
2023/03/10 00:36:09;;;;;;;39.63;16.00;;;;;;;8.93;66.66;98170.41;682783;28;1266;-85
2023/03/10 00:36:31;;;;;;;41.35;17.05;;;;;;;8.88;66.24;98157.44;685464;28;1117;-85
2023/03/10 00:36:51;;;;;;;38.35;16.63;;;;;;;8.81;66.42;98160.97;690480;28;1596;-85
2023/03/10 00:37:12;;;;;;;33.10;15.23;;;;;;;8.89;66.76;98163.50;682839;28;1211;-85
2023/03/10 00:37:36;;;;;;;31.67;15.00;;;;;;;8.91;66.51;98161.78;685508;28;1337;-85
2023/03/10 00:37:57;;;;;;;35.00;14.95;;;;;;;8.77;66.95;98164.44;685506;28;1255;-85
2023/03/10 00:38:19;;;;;;;40.43;15.47;;;;;;;8.67;67.01;98157.59;677578;28;1251;-85
2023/03/10 00:38:40;;;;;;;38.97;16.00;;;;;;;8.68;67.22;98160.19;677568;29;1289;-85
2023/03/10 00:39:02;;;;;;;35.40;15.75;;;;;;;8.74;67.42;98165.31;681994;29;1476;-85
2023/03/10 00:39:22;;;;;;;39.15;15.52;;;;;;;8.66;67.58;98161.06;682957;29;843;-85
2023/03/10 00:39:44;;;;;;;37.57;14.80;;;;;;;8.79;67.47;98157.53;685611;28;1212;-84
2023/03/10 00:40:09;;;;;;;37.17;14.25;;;;;;;8.84;67.38;98160.09;685374;28;1224;-86
2023/03/10 00:40:30;;;;;;;33.50;12.93;;;;;;;8.80;67.24;98153.16;688001;28;1188;-85
2023/03/10 00:41:00;;;;;;;35.65;12.95;;;;;;;8.85;67.21;98151.41;687927;28;1232;-85
2023/03/10 00:41:24;;;;;;;32.40;13.40;;;;;;;8.77;67.88;98149.72;688309;28;1089;-85
2023/03/10 00:41:54;;;;;;;27.00;12.25;;;;;;;8.77;67.90;98154.91;690573;28;1204;-85
2023/03/10 00:42:14;;;;;;;27.95;11.50;;;;;;;8.88;67.98;98159.16;685445;28;1313;-85
2023/03/10 00:42:35;;;;;;;28.90;11.30;;;;;;;8.89;68.13;98153.97;688204;28;783;-85
2023/03/10 00:42:55;;;;;;;28.43;11.00;;;;;;;8.89;68.15;98153.97;688051;28;1044;-85
2023/03/10 00:43:16;;;;;;;24.83;10.30;;;;;;;8.96;68.00;98162.56;688243;28;1012;-85
2023/03/10 00:43:37;;;;;;;23.83;9.97;;;;;;;8.94;68.45;98138.31;685504;28;1193;-85
2023/03/10 00:44:00;;;;;;;28.30;9.93;;;;;;;9.15;68.36;98162.47;682841;28;1449;-85
2023/03/10 00:44:20;;;;;;;29.58;9.60;;;;;;;9.05;68.23;98151.25;688161;28;1257;-85
2023/03/10 00:44:43;;;;;;;31.50;9.50;;;;;;;9.14;68.42;98163.31;685441;28;1397;-85
2023/03/10 00:45:04;;;;;;;27.00;9.25;;;;;;;9.26;68.18;98142.41;682731;28;1144;-85
2023/03/10 00:45:24;;;;;;;25.20;9.52;;;;;;;9.34;68.09;98138.88;688193;28;1193;-85
2023/03/10 00:45:45;;;;;;;21.50;9.20;;;;;;;9.43;67.75;98150.06;688148;28;1312;-85
2023/03/10 00:46:07;;;;;;;20.15;9.10;;;;;;;9.46;67.67;98141.34;685370;28;1260;-85
2023/03/10 00:46:28;;;;;;;19.38;8.55;;;;;;;9.59;67.34;98148.16;683040;29;839;-85
2023/03/10 00:46:49;;;;;;;22.33;8.15;;;;;;;9.62;67.66;98155.06;682561;29;1356;-86
2023/03/10 00:47:10;;;;;;;22.17;7.88;;;;;;;9.65;67.82;98143.78;688115;28;1246;-85
2023/03/10 00:47:31;;;;;;;19.98;7.32;;;;;;;9.71;67.62;98154.97;688308;28;1191;-85
2023/03/10 00:47:51;;;;;;;17.75;7.22;;;;;;;9.73;67.49;98141.94;685479;28;1111;-85
2023/03/10 00:48:12;;;;;;;15.80;6.95;;;;;;;9.79;67.48;98143.59;690884;28;1286;-85
2023/03/10 00:48:33;;;;;;;17.90;7.23;;;;;;;9.91;67.57;98145.22;688237;28;1145;-85
2023/03/10 00:48:54;;;;;;;20.35;7.35;;;;;;;9.94;67.57;98151.25;688028;28;1273;-85
2023/03/10 00:49:16;;;;;;;19.88;7.30;;;;;;;9.89;67.33;98136.56;693599;28;1278;-85
2023/03/10 00:49:36;;;;;;;19.00;7.10;;;;;;;9.96;67.33;98144.28;690819;28;1852;-85
2023/03/10 00:49:57;;;;;;;17.23;6.57;;;;;;;9.98;67.42;98136.44;682723;28;1145;-85
2023/03/10 00:50:17;;;;;;;16.60;5.70;;;;;;;10.01;67.34;98128.59;685504;28;1275;-85
2023/03/10 00:50:38;;;;;;;14.23;5.32;;;;;;;10.06;67.66;98137.22;690809;28;1205;-86
2023/03/10 00:50:59;;;;;;;13.25;5.40;;;;;;;10.13;67.59;98133.66;685369;28;1379;-85
2023/03/10 00:51:21;;;;;;;16.20;5.60;;;;;;;10.23;67.45;98138.78;685442;28;1263;-85
2023/03/10 00:51:41;;;;;;;17.00;5.40;;;;;;;10.34;67.57;98143.84;688167;28;1214;-85
2023/03/10 00:52:02;;;;;;;18.30;5.20;;;;;;;10.33;67.57;98136.91;687898;28;1915;-85
2023/03/10 00:52:23;;;;;;;15.43;4.90;;;;;;;10.39;67.60;98135.09;685635;28;811;-85
2023/03/10 00:52:55;;;;;;;16.08;4.80;;;;;;;10.41;67.46;98127.25;682944;28;1211;-84
2023/03/10 00:53:16;;;;;;;12.52;4.63;;;;;;;10.52;67.41;98129.72;685552;28;1103;-83
2023/03/10 00:53:38;;;;;;;10.23;4.25;;;;;;;10.58;67.34;98132.22;688180;28;1259;-83
2023/03/10 00:54:01;;;;;;;10.00;4.00;;;;;;;10.71;67.50;98119.88;682709;29;1244;-83
2023/03/10 00:54:21;;;;;;;12.15;4.10;;;;;;;10.86;67.04;98131.78;680259;29;1332;-83
2023/03/10 00:54:42;;;;;;;12.98;3.95;;;;;;;10.93;67.22;98123.00;682820;29;1209;-83
2023/03/10 00:55:04;;;;;;;13.40;3.70;;;;;;;10.99;67.01;98123.78;685184;28;1161;-83
2023/03/10 00:55:25;;;;;;;12.63;3.72;;;;;;;11.04;67.02;98125.44;688117;28;1363;-83
2023/03/10 00:56:14;;;;;;;13.32;4.07;;;;;;;11.06;66.75;98139.31;685445;28;1208;-83
2023/03/10 00:56:35;;;;;;;9.70;4.20;;;;;;;11.15;67.03;98127.88;683361;28;1166;-83
2023/03/10 00:56:56;;;;;;;13.00;4.10;;;;;;;11.13;66.87;98116.59;683001;29;1162;-83
2023/03/10 00:57:17;;;;;;;12.77;3.88;;;;;;;11.18;66.79;98126.97;685980;28;1268;-83
2023/03/10 00:57:37;;;;;;;13.07;4.00;;;;;;;11.20;66.92;98125.19;691198;28;1172;-82
2023/03/10 00:57:58;;;;;;;9.13;4.00;;;;;;;11.27;67.05;98125.91;688630;28;1300;-83
2023/03/10 00:58:19;;;;;;;13.00;4.03;;;;;;;11.24;67.15;98127.69;688701;28;1184;-83
2023/03/10 00:58:40;;;;;;;13.60;3.95;;;;;;;11.26;67.36;98119.84;688777;28;964;-83
2023/03/10 00:59:01;;;;;;;14.63;3.80;;;;;;;11.24;67.40;98117.25;688666;28;1132;-83
2023/03/10 00:59:22;;;;;;;12.52;3.90;;;;;;;11.27;67.13;98124.19;683432;28;1132;-83
2023/03/10 00:59:42;;;;;;;12.13;3.73;;;;;;;11.27;67.52;98118.97;688666;28;1171;-83
2023/03/10 01:00:05;;;;;;;10.90;3.65;;;;;;;11.26;67.19;98113.75;685948;28;1245;-83
2023/03/10 01:00:26;;;;;;;10.88;3.80;;;;;;;11.35;67.52;98118.81;691304;28;1265;-83
2023/03/10 01:00:46;;;;;;;11.93;3.63;;;;;;;11.29;67.56;98118.94;683322;29;1079;-83
2023/03/10 01:01:28;;;;;;;12.50;3.70;;;;;;;11.38;67.33;98109.16;683346;28;1175;-83
2023/03/10 01:01:49;;;;;;;10.60;3.25;;;;;;;11.34;67.50;98111.88;685884;28;1131;-83
2023/03/10 01:02:10;;;;;;;10.25;3.20;;;;;;;11.42;67.86;98122.19;688725;28;1169;-83
2023/03/10 01:02:30;;;;;;;12.65;3.17;;;;;;;11.46;67.76;98113.41;683416;28;915;-83
2023/03/10 01:02:51;;;;;;;12.00;3.30;;;;;;;11.44;67.86;98112.56;683197;28;1236;-83
2023/03/10 01:03:12;;;;;;;11.57;3.20;;;;;;;11.48;67.91;98106.38;685938;28;1178;-83
2023/03/10 01:03:33;;;;;;;9.93;3.30;;;;;;;11.56;67.67;98128.00;686178;28;792;-83
2023/03/10 01:03:55;;;;;;;10.43;3.30;;;;;;;11.52;67.90;98127.22;688543;28;1094;-83
2023/03/10 01:04:17;;;;;;;10.27;3.28;;;;;;;11.40;68.27;98109.16;683288;29;1886;-83
2023/03/10 01:04:38;;;;;;;9.27;3.00;;;;;;;11.43;68.68;98121.31;688580;28;1330;-83
2023/03/10 01:04:59;;;;;;;9.70;2.90;;;;;;;11.55;68.52;98120.22;691358;28;991;-83
2023/03/10 01:05:20;;;;;;;9.80;2.97;;;;;;;11.66;68.08;98128.72;691382;28;1323;-83
2023/03/10 01:05:40;;;;;;;9.60;3.30;;;;;;;11.58;68.22;98121.03;683259;28;1346;-83
2023/03/10 01:06:02;;;;;;;7.72;3.20;;;;;;;11.69;68.36;98117.38;686031;28;989;-83
2023/03/10 01:06:24;;;;;;;7.25;3.22;;;;;;;11.66;68.31;98123.50;686058;28;805;-83
2023/03/10 01:06:46;;;;;;;8.98;3.13;;;;;;;11.71;68.64;98119.06;688577;28;1067;-83
2023/03/10 01:07:08;;;;;;;11.60;3.33;;;;;;;11.82;67.89;98108.41;688536;28;987;-83
2023/03/10 01:07:29;;;;;;;12.63;3.38;;;;;;;11.73;68.08;98112.03;688602;28;1284;-84
2023/03/10 01:07:49;;;;;;;10.90;3.00;;;;;;;11.77;68.22;98116.34;685994;28;1087;-82
2023/03/10 01:08:10;;;;;;;9.73;2.78;;;;;;;11.63;68.12;98102.66;683234;29;1187;-83
2023/03/10 01:08:31;;;;;;;7.65;2.60;;;;;;;11.74;67.93;98111.16;688670;28;1339;-82
2023/03/10 01:08:53;;;;;;;7.70;2.50;;;;;;;11.81;67.95;98111.91;688676;28;1073;-83
2023/03/10 01:09:13;;;;;;;8.02;2.40;;;;;;;11.77;67.72;98113.72;685823;28;1010;-83
2023/03/10 01:09:34;;;;;;;8.10;2.33;;;;;;;11.88;67.91;98102.19;683217;28;1367;-83
2023/03/10 01:09:55;;;;;;;7.28;2.42;;;;;;;11.74;68.04;98102.47;685803;28;1623;-83
2023/03/10 01:10:17;;;;;;;6.68;2.65;;;;;;;11.59;68.26;98099.22;694091;28;1244;-83
2023/03/10 01:10:37;;;;;;;5.45;2.55;;;;;;;11.68;68.08;98102.59;688654;28;1091;-83
2023/03/10 01:10:58;;;;;;;6.53;2.80;;;;;;;11.68;68.55;98102.59;688629;28;1204;-83
2023/03/10 01:11:22;;;;;;;6.43;2.70;;;;;;;11.70;68.73;98106.91;685930;28;1186;-83
2023/03/10 01:11:42;;;;;;;7.40;2.63;;;;;;;11.60;68.76;98102.69;688685;28;1389;-83
2023/03/10 01:12:03;;;;;;;8.82;2.60;;;;;;;11.66;68.48;98092.16;685807;28;1911;-83
2023/03/10 01:12:24;;;;;;;9.57;2.80;;;;;;;11.66;68.98;98110.44;685974;28;1172;-83
2023/03/10 01:12:44;;;;;;;9.43;2.70;;;;;;;11.60;68.67;98097.47;691462;28;1232;-84
2023/03/10 01:13:05;;;;;;;7.57;2.50;;;;;;;11.63;68.50;98097.41;685824;28;1210;-83
2023/03/10 01:13:26;;;;;;;6.63;2.40;;;;;;;11.69;68.66;98096.47;686036;28;1296;-84
2023/03/10 01:13:47;;;;;;;8.82;2.50;;;;;;;11.83;68.55;98114.47;683240;28;1100;-83
2023/03/10 01:14:11;;;;;;;7.78;2.58;;;;;;;11.89;68.57;98111.75;683276;28;1233;-83
2023/03/10 01:14:32;;;;;;;8.65;2.80;;;;;;;11.99;68.17;98113.25;688799;28;850;-84
2023/03/10 01:14:52;;;;;;;6.90;2.80;;;;;;;11.78;68.22;98105.00;691295;28;1316;-83
2023/03/10 01:15:13;;;;;;;8.82;2.75;;;;;;;11.73;68.55;98098.97;686210;28;1270;-84
2023/03/10 01:15:33;;;;;;;8.13;2.85;;;;;;;11.79;68.53;98098.88;686100;28;984;-84
2023/03/10 01:15:54;;;;;;;7.93;2.70;;;;;;;11.72;68.57;98099.88;685839;28;1225;-84
2023/03/10 01:16:15;;;;;;;5.40;2.50;;;;;;;11.89;68.62;98104.78;688269;28;1208;-83
2023/03/10 01:16:35;;;;;;;4.30;2.28;;;;;;;12.01;68.47;98102.78;680775;29;813;-83
2023/03/10 01:16:58;;;;;;;3.78;2.50;;;;;;;11.89;68.15;98091.72;683122;29;993;-83
2023/03/10 01:17:18;;;;;;;4.60;2.70;;;;;;;11.96;68.41;98105.50;685975;28;1205;-84
2023/03/10 01:17:39;;;;;;;6.30;2.70;;;;;;;11.99;68.46;98105.44;685968;28;1195;-83
2023/03/10 01:18:02;;;;;;;6.10;2.30;;;;;;;11.97;68.26;98095.94;683180;29;1202;-83
2023/03/10 01:18:23;;;;;;;7.22;2.28;;;;;;;12.03;68.37;98101.00;685978;28;1240;-84
2023/03/10 01:18:44;;;;;;;6.80;2.40;;;;;;;12.09;68.05;98105.25;686077;28;1091;-84
2023/03/10 01:19:04;;;;;;;7.10;2.50;;;;;;;12.09;68.07;98108.72;691211;28;1144;-83
2023/03/10 01:19:26;;;;;;;6.38;2.60;;;;;;;12.07;68.28;98095.66;688639;28;1240;-83
2023/03/10 01:19:46;;;;;;;7.80;2.70;;;;;;;11.99;68.46;98094.97;691341;28;1318;-84
2023/03/10 01:20:12;;;;;;;8.02;2.60;;;;;;;12.15;68.16;98108.59;686108;28;991;-84
2023/03/10 01:20:33;;;;;;;6.25;2.30;;;;;;;12.15;68.21;98105.97;686037;28;832;-84
2023/03/10 01:21:06;;;;;;;6.00;2.20;;;;;;;12.26;68.07;98103.13;680147;29;1195;-83
2023/03/10 01:21:30;;;;;;;6.38;2.40;;;;;;;12.28;67.98;98105.72;686042;28;1194;-83
2023/03/10 01:21:51;;;;;;;6.32;2.30;;;;;;;12.33;68.00;98103.84;685769;28;998;-81
2023/03/10 01:22:11;;;;;;;5.38;2.22;;;;;;;12.34;68.00;98101.22;683450;29;1143;-82
2023/03/10 01:22:32;;;;;;;4.70;2.08;;;;;;;12.37;67.87;98075.88;686099;28;796;-81
2023/03/10 01:22:53;;;;;;;6.33;2.20;;;;;;;12.46;67.46;98093.97;691207;28;1227;-81
2023/03/10 01:23:19;;;;;;;5.90;2.17;;;;;;;12.48;67.33;98094.81;693863;28;1108;-81
2023/03/10 01:23:40;;;;;;;5.20;2.28;;;;;;;12.40;67.50;98089.75;691256;28;1162;-80
2023/03/10 01:24:00;;;;;;;3.85;2.10;;;;;;;12.41;67.47;98081.00;683068;29;1277;-81
2023/03/10 01:24:21;;;;;;;6.35;2.50;;;;;;;12.37;67.39;98084.59;685985;28;1217;-82
2023/03/10 01:24:42;;;;;;;8.73;2.70;;;;;;;12.43;67.40;98091.44;683233;28;1165;-81
2023/03/10 01:25:04;;;;;;;8.10;2.50;;;;;;;12.32;67.58;98073.38;688492;28;1262;-81
2023/03/10 01:25:26;;;;;;;7.50;2.13;;;;;;;12.25;67.79;98085.72;688649;28;883;-81
2023/03/10 01:25:47;;;;;;;7.40;2.10;;;;;;;12.34;67.86;98101.22;688560;28;1106;-81
2023/03/10 01:26:08;;;;;;;7.10;2.20;;;;;;;12.40;67.85;98088.91;688566;28;1286;-81
2023/03/10 01:26:29;;;;;;;5.80;2.20;;;;;;;12.44;67.73;98091.41;686075;28;1255;-81
2023/03/10 01:26:50;;;;;;;3.95;2.10;;;;;;;12.39;67.71;98077.56;685784;28;1101;-81
2023/03/10 01:27:11;;;;;;;4.00;1.80;;;;;;;12.46;67.73;98105.31;685864;28;1192;-82
2023/03/10 01:27:31;;;;;;;5.20;1.80;;;;;;;12.48;67.45;98076.50;686031;28;1261;-81
2023/03/10 01:27:53;;;;;;;5.43;2.10;;;;;;;12.51;67.71;98096.47;683279;28;1180;-82
2023/03/10 01:28:14;;;;;;;4.45;2.20;;;;;;;12.47;67.58;98080.00;688553;28;1229;-81
2023/03/10 01:28:35;;;;;;;4.00;2.28;;;;;;;12.51;67.75;98084.28;688772;28;874;-81
2023/03/10 01:28:57;;;;;;;3.58;2.10;;;;;;;12.53;67.83;98071.16;688517;28;1369;-81
2023/03/10 01:29:17;;;;;;;4.18;2.10;;;;;;;12.55;67.65;98078.06;691165;28;1105;-81
2023/03/10 01:29:38;;;;;;;4.67;2.23;;;;;;;12.54;67.46;98086.81;691250;28;1291;-82
2023/03/10 01:29:59;;;;;;;5.35;2.50;;;;;;;12.65;67.35;98083.09;688553;28;1289;-81
2023/03/10 01:30:19;;;;;;;5.82;2.65;;;;;;;12.66;67.72;98079.59;688536;28;1321;-81
2023/03/10 01:30:40;;;;;;;4.93;2.50;;;;;;;12.66;67.25;98079.59;688611;28;1307;-81
2023/03/10 01:31:04;;;;;;;3.92;2.40;;;;;;;12.66;67.41;98084.81;688457;28;1315;-82
2023/03/10 01:31:24;;;;;;;4.25;2.30;;;;;;;12.63;67.47;98087.50;685918;28;1135;-81
2023/03/10 01:31:45;;;;;;;4.68;2.30;;;;;;;12.63;67.82;98085.75;688723;28;1011;-81
2023/03/10 01:32:06;;;;;;;4.80;2.30;;;;;;;12.63;67.38;98070.03;688378;28;1926;-82
2023/03/10 01:32:27;;;;;;;3.67;2.20;;;;;;;12.57;67.50;98072.81;686002;28;1309;-81
2023/03/10 01:32:47;;;;;;;4.63;2.40;;;;;;;12.49;67.73;98059.91;677959;29;1387;-81
2023/03/10 01:33:10;;;;;;;5.60;2.50;;;;;;;12.61;67.69;98080.53;685910;28;1205;-81
2023/03/10 01:33:31;;;;;;;5.20;2.33;;;;;;;12.67;67.45;98076.91;685996;28;1290;-80
2023/03/10 01:33:52;;;;;;;5.00;2.17;;;;;;;12.71;67.42;98062.00;685816;28;1178;-81
2023/03/10 01:34:13;;;;;;;5.20;2.20;;;;;;;12.72;67.52;98084.69;688531;28;1063;-81
2023/03/10 01:34:34;;;;;;;5.97;2.30;;;;;;;12.76;67.60;98065.38;688712;28;811;-81
2023/03/10 01:34:54;;;;;;;5.68;2.60;;;;;;;12.78;67.36;98076.66;683057;28;1239;-81
2023/03/10 01:35:15;;;;;;;6.10;2.60;;;;;;;12.79;67.45;98085.38;688556;28;1165;-81
2023/03/10 01:35:37;;;;;;;5.70;2.60;;;;;;;12.77;67.32;98077.56;688622;28;863;-82
2023/03/10 01:35:57;;;;;;;4.50;2.40;;;;;;;12.73;67.48;98068.09;685916;28;1126;-81
2023/03/10 01:36:22;;;;;;;4.80;2.50;;;;;;;12.83;67.50;98080.03;683345;29;1069;-81
2023/03/10 01:36:42;;;;;;;5.00;2.60;;;;;;;12.78;67.55;98094.97;688500;28;1281;-82
2023/03/10 01:37:03;;;;;;;6.15;2.38;;;;;;;12.68;67.77;98077.78;683097;28;1201;-81
2023/03/10 01:37:24;;;;;;;5.30;2.43;;;;;;;12.78;67.79;98078.44;686002;28;1335;-82
2023/03/10 01:37:45;;;;;;;4.93;2.30;;;;;;;12.82;67.27;98077.44;680719;29;1084;-81
2023/03/10 01:38:06;;;;;;;3.80;2.42;;;;;;;12.80;67.43;98100.19;688571;28;1144;-81
2023/03/10 01:38:27;;;;;;;4.20;2.40;;;;;;;12.78;67.51;98073.19;685891;28;915;-81
2023/03/10 01:38:49;;;;;;;4.70;2.55;;;;;;;12.69;67.56;98075.13;685816;28;1104;-81
2023/03/10 01:39:09;;;;;;;5.50;2.60;;;;;;;12.60;67.91;98075.38;683281;29;1021;-81
2023/03/10 01:39:31;;;;;;;5.03;2.53;;;;;;;12.68;68.11;98086.50;683251;29;1214;-81
2023/03/10 01:39:54;;;;;;;6.47;2.50;;;;;;;12.72;67.98;98076.81;683167;29;1275;-81
2023/03/10 01:40:17;;;;;;;7.03;2.40;;;;;;;12.69;67.98;98072.53;677953;29;1374;-81
2023/03/10 01:40:38;;;;;;;6.10;2.30;;;;;;;12.65;68.11;98094.41;683222;28;1248;-81
2023/03/10 01:41:01;;;;;;;4.85;2.30;;;;;;;12.81;68.08;98099.28;688606;28;1155;-80
2023/03/10 01:41:22;;;;;;;3.75;2.38;;;;;;;12.78;67.96;98063.56;691448;28;1158;-81
2023/03/10 01:41:42;;;;;;;5.30;2.53;;;;;;;12.88;67.82;98086.03;691013;28;1293;-81
2023/03/10 01:42:04;;;;;;;4.90;2.75;;;;;;;12.77;67.49;98056.63;685676;28;1491;-81
2023/03/10 01:42:26;;;;;;;3.83;2.78;;;;;;;12.88;67.85;98085.16;683349;29;780;-81
2023/03/10 01:42:46;;;;;;;3.85;2.70;;;;;;;12.85;67.68;98075.59;693130;28;1189;-81
2023/03/10 01:43:19;;;;;;;3.17;2.30;;;;;;;12.84;67.33;98066.03;688592;28;1180;-81
2023/03/10 01:43:41;;;;;;;3.30;2.00;;;;;;;12.79;67.39;98073.13;683276;29;1105;-81
2023/03/10 01:44:03;;;;;;;3.50;2.38;;;;;;;12.86;67.51;98079.94;683180;28;1095;-81